createdAt,value
2019-04-11T00:02:25.458Z,96084.84
2019-04-11T00:04:52.699Z,96084.78
2019-04-11T00:07:19.003Z,96080.23
2019-04-11T00:09:47.795Z,96082.19
2019-04-11T00:12:19.318Z,96087.70
2019-04-11T00:14:48.354Z,96084.46
2019-04-11T00:17:17.430Z,96080.75
2019-04-11T00:19:53.742Z,96087.55
2019-04-11T00:22:19.467Z,96093.69
2019-04-11T00:24:53.207Z,96089.78
2019-04-11T00:27:25.290Z,96086.63
2019-04-11T00:29:57.868Z,96085.52
2019-04-11T00:32:25.332Z,96092.13
2019-04-11T00:34:51.587Z,96088.31
2019-04-11T00:37:19.010Z,96084.97
2019-04-11T00:39:47.843Z,96089.45
2019-04-11T00:42:14.593Z,96095.10
2019-04-11T00:44:47.996Z,96091.03
2019-04-11T00:47:13.050Z,96094.55
2019-04-11T00:49:44.103Z,96096.88
2019-04-11T00:52:16.255Z,96095.22
2019-04-11T00:54:44.330Z,96093.72
2019-04-11T00:57:10.698Z,96093.09
2019-04-11T00:59:44.675Z,96092.08
2019-04-11T01:02:09.391Z,96095.31
2019-04-11T01:04:45.348Z,96099.67
2019-04-11T01:07:11.314Z,96100.97
2019-04-11T01:09:37.484Z,96099.77
2019-04-11T01:12:04.633Z,96100.70
2019-04-11T01:15:17.875Z,96098.20
2019-04-11T01:16:59.182Z,96094.12
2019-04-11T01:19:27.536Z,96107.30
2019-04-11T01:21:53.667Z,96102.56
2019-04-11T01:24:22.408Z,96109.45
2019-04-11T01:26:51.777Z,96109.16
2019-04-11T01:29:19.561Z,96106.55
2019-04-11T01:31:47.826Z,96100.15
2019-04-11T01:34:20.240Z,96102.02
2019-04-11T01:36:49.436Z,96102.58
2019-04-11T01:39:21.842Z,96102.58
2019-04-11T01:41:48.866Z,96097.66
2019-04-11T01:44:22.743Z,96106.09
2019-04-11T01:46:46.491Z,96107.66
2019-04-11T01:49:18.480Z,96103.49
2019-04-11T01:51:45.550Z,96106.73
2019-04-11T01:54:13.572Z,96104.89
2019-04-11T01:56:41.093Z,96103.77
2019-04-11T01:59:07.995Z,96102.17
2019-04-11T02:01:54.885Z,96103.65
2019-04-11T02:04:26.131Z,96106.42
2019-04-11T02:06:54.485Z,96105.70
2019-04-11T02:09:22.023Z,96108.84
2019-04-11T02:11:50.187Z,96111.16
2019-04-11T02:14:21.468Z,96109.95
2019-04-11T02:16:55.685Z,96111.80
2019-04-11T02:19:28.609Z,96116.63
2019-04-11T02:21:58.556Z,96113.64
2019-04-11T02:24:37.672Z,96117.17
2019-04-11T02:27:21.170Z,96111.13
2019-04-11T02:29:48.881Z,96117.34
2019-04-11T02:32:15.764Z,96118.73
2019-04-11T02:34:43.909Z,96124.58
2019-04-11T02:37:10.336Z,96126.06
2019-04-11T02:39:38.494Z,96123.24
2019-04-11T02:42:06.348Z,96127.70
2019-04-11T02:44:50.930Z,96131.77
2019-04-11T02:47:09.848Z,96135.36
2019-04-11T02:49:39.349Z,96128.87
2019-04-11T02:52:02.961Z,96129.45
2019-04-11T02:54:33.863Z,96135.63
2019-04-11T02:57:03.606Z,96135.63
2019-04-11T02:59:30.516Z,96136.92
2019-04-11T03:02:00.463Z,96136.55
2019-04-11T03:04:31.142Z,96134.98
2019-04-11T03:06:59.854Z,96136.73
2019-04-11T03:09:51.049Z,96138.56
2019-04-11T03:11:58.936Z,96152.38
2019-04-11T03:14:27.734Z,96148.21
2019-04-11T03:17:03.649Z,96147.91
2019-04-11T03:19:37.562Z,96151.15
2019-04-11T03:21:54.303Z,96149.00
2019-04-11T03:24:24.452Z,96149.00
2019-04-11T03:26:56.552Z,96157.05
2019-04-11T03:29:30.903Z,96149.44
2019-04-11T03:39:48.760Z,96161.28
2019-04-11T03:42:10.953Z,96159.44
2019-04-11T03:44:28.612Z,96158.68
2019-04-11T03:47:08.415Z,96162.74
2019-04-11T03:49:31.735Z,96162.38
2019-04-11T03:51:50.735Z,96169.84
2019-04-11T03:54:17.999Z,96168.63
2019-04-11T04:00:21.607Z,96172.33
2019-04-11T04:03:09.048Z,96172.30
2019-04-11T04:08:44.464Z,96178.83
2019-04-11T04:11:22.168Z,96185.92
2019-04-11T04:14:24.978Z,96188.30
2019-04-11T04:17:32.981Z,96185.03
2019-04-11T04:20:08.759Z,96182.69
2019-04-11T04:23:03.177Z,96188.56
2019-04-11T04:29:02.145Z,96193.70
2019-04-11T04:31:30.633Z,96197.54
2019-04-11T04:33:57.737Z,96202.48
2019-04-11T04:36:26.744Z,96202.48
2019-04-11T04:38:54.560Z,96205.92
2019-04-11T04:41:35.127Z,96202.56
2019-04-11T04:43:54.695Z,96205.71
2019-04-11T04:46:34.853Z,96215.99
2019-04-11T04:48:51.294Z,96219.41
2019-04-11T04:51:18.339Z,96220.62
2019-04-11T04:53:57.728Z,96221.47
2019-04-11T04:56:20.244Z,96225.43
2019-04-11T04:58:44.369Z,96228.39
2019-04-11T05:01:12.515Z,96228.79
2019-04-11T05:03:40.436Z,96223.98
2019-04-11T05:06:07.709Z,96229.92
2019-04-11T05:08:34.761Z,96230.82
2019-04-11T05:11:02.181Z,96230.38
2019-04-11T05:13:30.019Z,96230.74
2019-04-11T05:16:06.865Z,96237.91
2019-04-11T05:18:25.657Z,96235.69
2019-04-11T05:20:52.734Z,96237.83
2019-04-11T05:23:18.927Z,96239.50
2019-04-11T05:25:45.204Z,96248.73
2019-04-11T05:28:12.041Z,96245.58
2019-04-11T05:30:39.835Z,96249.78
2019-04-11T05:33:06.104Z,96251.21
2019-04-11T05:35:33.006Z,96254.94
2019-04-11T05:38:00.394Z,96254.25
2019-04-11T05:40:26.481Z,96257.58
2019-04-11T05:42:54.134Z,96256.97
2019-04-11T05:45:22.572Z,96261.06
2019-04-11T05:47:50.917Z,96262.68
2019-04-11T05:50:22.164Z,96262.48
2019-04-11T05:52:48.399Z,96264.75
2019-04-11T05:55:15.519Z,96271.47
2019-04-11T05:57:44.769Z,96271.68
2019-04-11T06:00:30.951Z,96266.24
2019-04-11T06:02:59.669Z,96272.84
2019-04-11T06:05:35.481Z,96267.98
2019-04-11T06:08:05.445Z,96271.70
2019-04-11T06:10:33.871Z,96274.86
2019-04-11T06:13:12.066Z,96270.36
2019-04-11T06:15:45.813Z,96273.91
2019-04-11T06:18:26.224Z,96282.30
2019-04-11T06:20:45.002Z,96275.08
2019-04-11T06:23:31.827Z,96280.86
2019-04-11T06:26:10.458Z,96284.41
2019-04-11T06:28:39.135Z,96281.00
2019-04-11T06:31:13.775Z,96285.03
2019-04-11T06:33:42.858Z,96289.48
2019-04-11T06:36:21.005Z,96291.83
2019-04-11T06:38:51.998Z,96291.03
2019-04-11T06:41:26.328Z,96290.23
2019-04-11T06:44:04.703Z,96293.30
2019-04-11T06:46:55.788Z,96287.39
2019-04-11T06:49:27.060Z,96293.81
2019-04-11T06:51:55.164Z,96295.13
2019-04-11T06:54:23.376Z,96300.45
2019-04-11T06:56:52.099Z,96304.72
2019-04-11T06:59:20.640Z,96304.45
2019-04-11T07:01:47.576Z,96302.34
2019-04-11T07:04:15.668Z,96304.13
2019-04-11T07:06:43.930Z,96304.41
2019-04-11T07:09:17.632Z,96296.14
2019-04-11T07:11:48.573Z,96297.84
2019-04-11T07:14:16.654Z,96299.48
2019-04-11T07:17:06.900Z,96296.91
2019-04-11T07:19:33.800Z,96292.55
2019-04-11T07:22:00.298Z,96293.38
2019-04-11T07:24:28.337Z,96292.91
2019-04-11T07:26:56.466Z,96292.88
2019-04-11T07:29:27.286Z,96296.67
2019-04-11T07:32:09.385Z,96304.50
2019-04-11T07:34:39.669Z,96309.22
2019-04-11T07:37:25.994Z,96306.41
2019-04-11T07:39:58.473Z,96302.11
2019-04-11T07:42:26.667Z,96309.59
2019-04-11T07:44:57.689Z,96308.55
2019-04-11T07:47:29.468Z,96310.57
2019-04-11T07:49:58.209Z,96317.70
2019-04-11T07:52:25.226Z,96318.11
2019-04-11T07:54:51.490Z,96325.89
2019-04-11T07:57:31.834Z,96324.38
2019-04-11T08:00:03.765Z,96321.16
2019-04-11T08:02:38.154Z,96325.56
2019-04-11T08:05:11.080Z,96327.81
2019-04-11T08:07:51.866Z,96331.36
2019-04-11T08:10:25.901Z,96333.14
2019-04-11T08:12:54.110Z,96327.55
2019-04-11T08:15:29.337Z,96330.41
2019-04-11T08:17:57.541Z,96325.97
2019-04-11T08:20:42.288Z,96329.45
2019-04-11T08:23:09.720Z,96329.77
2019-04-11T08:25:47.386Z,96328.26
2019-04-11T08:28:14.628Z,96334.92
2019-04-11T08:30:55.190Z,96347.09
2019-04-11T08:33:24.549Z,96337.41
2019-04-11T08:35:57.165Z,96346.61
2019-04-11T08:38:26.597Z,96348.20
2019-04-11T08:40:55.487Z,96352.30
2019-04-11T08:43:29.578Z,96352.56
2019-04-11T08:46:06.881Z,96348.66
2019-04-11T08:48:35.208Z,96343.19
2019-04-11T08:51:12.525Z,96345.34
2019-04-11T08:53:44.713Z,96352.61
2019-04-11T08:56:12.880Z,96347.25
2019-04-11T08:58:53.140Z,96341.30
2019-04-11T09:01:20.735Z,96347.14
2019-04-11T09:04:09.218Z,96348.54
2019-04-11T09:06:34.847Z,96349.84
2019-04-11T09:09:18.807Z,96349.73
2019-04-11T09:11:48.829Z,96352.34
2019-04-11T09:14:20.029Z,96352.92
2019-04-11T09:16:58.234Z,96354.59
2019-04-11T09:19:27.254Z,96345.29
2019-04-11T09:22:11.000Z,96348.95
2019-04-11T09:24:43.134Z,96354.77
2019-04-11T09:27:24.792Z,96348.66
2019-04-11T09:30:02.555Z,96349.73
2019-04-11T09:32:33.765Z,96354.91
2019-04-11T09:35:02.066Z,96360.13
2019-04-11T09:37:29.547Z,96373.39
2019-04-11T09:39:58.049Z,96362.34
2019-04-11T09:42:43.120Z,96360.20
2019-04-11T09:45:29.816Z,96357.64
2019-04-11T09:48:08.367Z,96359.58
2019-04-11T09:50:36.645Z,96366.07
2019-04-11T09:53:03.628Z,96362.84
2019-04-11T09:55:37.770Z,96360.03
2019-04-11T09:58:03.939Z,96361.62
2019-04-11T10:00:34.958Z,96364.36
2019-04-11T10:03:03.005Z,96349.77
2019-04-11T10:05:32.024Z,96349.77
2019-04-11T10:08:00.135Z,96368.44
2019-04-11T10:10:28.912Z,96371.22
2019-04-11T10:13:13.952Z,96365.56
2019-04-11T10:15:43.180Z,96370.08
2019-04-11T10:18:26.046Z,96376.73
2019-04-11T10:20:50.856Z,96371.30
2019-04-11T10:23:36.721Z,96361.56
2019-04-11T10:26:03.597Z,96371.31
2019-04-11T10:28:40.334Z,96376.88
2019-04-11T10:31:08.575Z,96374.58
2019-04-11T10:33:42.827Z,96374.75
2019-04-11T10:36:10.922Z,96376.34
2019-04-11T10:38:38.970Z,96376.63
2019-04-11T10:41:25.228Z,96372.89
2019-04-11T10:44:05.565Z,96369.98
2019-04-11T10:50:25.730Z,96377.25
2019-04-11T10:52:55.071Z,96386.31
2019-04-11T10:55:39.877Z,96383.21
2019-04-11T10:58:20.629Z,96381.94
2019-04-11T11:00:48.849Z,96384.20
2019-04-11T11:03:27.358Z,96390.73
2019-04-11T11:06:01.466Z,96382.98
2019-04-11T11:08:45.976Z,96383.64
2019-04-11T11:11:20.549Z,96379.38
2019-04-11T11:13:54.513Z,96374.02
2019-04-11T11:16:30.570Z,96373.84
2019-04-11T11:19:34.623Z,96374.08
2019-04-11T11:21:47.322Z,96371.54
2019-04-11T11:24:33.860Z,96371.39
2019-04-11T11:27:02.953Z,96364.17
2019-04-11T11:29:30.077Z,96369.94
2019-04-11T11:31:58.143Z,96367.89
2019-04-11T11:34:30.437Z,96365.91
2019-04-11T11:37:15.837Z,96363.50
2019-04-11T11:40:02.722Z,96367.31
2019-04-11T11:42:42.789Z,96368.95
2019-04-11T11:45:23.617Z,96366.77
2019-04-11T11:48:13.652Z,96378.04
2019-04-11T11:50:36.545Z,96366.34
2019-04-11T11:53:19.125Z,96376.84
2019-04-11T11:55:46.225Z,96376.30
2019-04-11T11:58:31.118Z,96368.25
2019-04-11T12:01:03.666Z,96377.19
2019-04-11T12:03:40.506Z,96376.78
2019-04-11T12:06:09.767Z,96372.06
2019-04-11T12:08:46.659Z,96375.03
2019-04-11T12:11:13.720Z,96360.08
2019-04-11T12:13:41.795Z,96373.46
2019-04-11T12:16:19.063Z,96377.19
2019-04-11T12:19:00.943Z,96366.23
2019-04-11T12:21:32.112Z,96363.16
2019-04-11T12:24:04.298Z,96350.75
2019-04-11T12:26:33.317Z,96356.44
2019-04-11T12:29:14.298Z,96354.50
2019-04-11T12:31:44.014Z,96361.97
2019-04-11T12:34:27.656Z,96355.66
2019-04-11T12:36:54.694Z,96354.61
2019-04-11T12:39:35.864Z,96349.36
2019-04-11T12:42:06.824Z,96349.17
2019-04-11T12:44:45.838Z,96345.77
2019-04-11T12:47:30.798Z,96346.53
2019-04-11T12:50:07.903Z,96341.52
2019-04-11T12:52:36.062Z,96350.86
2019-04-11T12:55:25.380Z,96343.40
2019-04-11T12:58:10.314Z,96346.17
2019-04-11T13:00:38.679Z,96349.45
2019-04-11T13:03:09.988Z,96348.78
2019-04-11T13:08:09.338Z,96341.00
2019-04-11T13:10:36.557Z,96333.74
2019-04-11T13:13:24.860Z,96336.56
2019-04-11T13:15:54.629Z,96344.20
2019-04-11T13:18:25.617Z,96340.33
2019-04-11T13:20:56.310Z,96344.66
2019-04-11T13:23:27.461Z,96336.95
2019-04-11T13:26:12.219Z,96340.81
2019-04-11T13:28:40.181Z,96346.55
2019-04-11T13:31:24.832Z,96349.98
2019-04-11T13:33:52.970Z,96352.04
2019-04-11T13:36:33.003Z,96350.19
2019-04-11T13:39:02.470Z,96351.10
2019-04-11T13:41:32.161Z,96342.02
2019-04-11T13:43:58.951Z,96343.57
2019-04-11T13:46:36.148Z,96348.34
2019-04-11T13:49:19.702Z,96349.21
2019-04-11T13:52:04.542Z,96347.41
2019-04-11T13:54:41.334Z,96344.81
2019-04-11T13:57:24.522Z,96347.90
2019-04-11T14:00:09.544Z,96348.18
2019-04-11T14:02:54.704Z,96355.27
2019-04-11T14:05:22.026Z,96354.07
2019-04-11T14:07:49.301Z,96353.06
2019-04-11T14:10:18.882Z,96348.06
2019-04-11T14:12:45.759Z,96353.47
2019-04-11T14:15:26.429Z,96346.79
2019-04-11T14:17:54.615Z,96345.06
2019-04-11T14:20:29.712Z,96344.70
2019-04-11T14:23:04.436Z,96350.58
2019-04-11T14:25:42.225Z,96348.73
2019-04-11T14:28:10.257Z,96345.75
2019-04-11T14:30:53.488Z,96352.11
2019-04-11T14:33:23.588Z,96356.30
2019-04-11T14:35:53.010Z,96360.38
2019-04-11T14:38:21.167Z,96344.23
2019-04-11T14:41:04.898Z,96352.05
2019-04-11T14:43:43.749Z,96360.77
2019-04-11T14:46:28.915Z,96363.99
2019-04-11T14:48:56.382Z,96365.09
2019-04-11T14:51:27.488Z,96363.36
2019-04-11T14:54:17.080Z,96366.83
2019-04-11T14:56:55.897Z,96377.70
2019-04-11T14:59:24.955Z,96373.95
2019-04-11T15:01:53.558Z,96378.57
2019-04-11T15:04:38.287Z,96378.73
2019-04-11T15:07:05.374Z,96380.56
2019-04-11T15:09:50.279Z,96375.22
2019-04-11T15:12:18.448Z,96382.19
2019-04-11T15:14:48.537Z,96377.84
2019-04-11T15:17:16.473Z,96380.28
2019-04-11T15:19:44.537Z,96376.09
2019-04-11T15:22:21.824Z,96379.06
2019-04-11T15:24:49.896Z,96381.39
2019-04-11T15:27:23.660Z,96384.36
2019-04-11T15:29:49.840Z,96388.30
2019-04-11T15:32:27.274Z,96393.09
2019-04-11T15:34:53.997Z,96388.55
2019-04-11T15:37:22.561Z,96394.80
2019-04-11T15:39:53.483Z,96394.63
2019-04-11T15:42:27.671Z,96396.53
2019-04-11T15:45:14.062Z,96390.84
2019-04-11T15:47:59.017Z,96392.08
2019-04-11T15:50:43.653Z,96388.91
2019-04-11T15:53:11.639Z,96400.73
2019-04-11T15:55:42.855Z,96396.03
2019-04-11T15:58:12.663Z,96407.47
2019-04-11T16:00:48.709Z,96406.08
2019-04-11T16:03:15.041Z,96409.16
2019-04-11T16:05:49.259Z,96413.11
2019-04-11T16:08:19.117Z,96417.55
2019-04-11T16:10:47.258Z,96415.78
2019-04-11T16:13:15.289Z,96418.37
2019-04-11T16:15:43.435Z,96417.98
2019-04-11T16:18:28.290Z,96419.47
2019-04-11T16:21:18.346Z,96419.19
2019-04-11T16:23:45.981Z,96418.53
2019-04-11T16:26:14.173Z,96425.63
2019-04-11T16:28:45.264Z,96422.68
2019-04-11T16:31:11.530Z,96427.67
2019-04-11T16:33:46.892Z,96432.75
2019-04-11T16:36:18.054Z,96436.86
2019-04-11T16:38:49.684Z,96444.06
2019-04-11T16:41:25.038Z,96433.72
2019-04-11T16:44:10.040Z,96440.28
2019-04-11T16:46:38.116Z,96439.07
2019-04-11T16:49:04.526Z,96442.14
2019-04-11T16:51:31.428Z,96434.91
2019-04-11T16:53:58.067Z,96444.02
2019-04-11T16:56:24.316Z,96443.20
2019-04-11T16:58:50.530Z,96447.39
2019-04-11T17:01:16.927Z,96446.57
2019-04-11T17:03:44.089Z,96446.34
2019-04-11T17:06:12.494Z,96450.66
2019-04-11T17:08:46.574Z,96457.33
2019-04-11T17:11:14.715Z,96451.48
2019-04-11T17:13:41.223Z,96453.99
2019-04-11T17:16:09.542Z,96458.98
2019-04-11T17:18:35.896Z,96463.39
2019-04-11T17:21:02.294Z,96463.74
2019-04-11T17:23:28.915Z,96464.48
2019-04-11T17:25:55.239Z,96471.96
2019-04-11T17:28:23.052Z,96478.16
2019-04-11T17:30:49.738Z,96469.69
2019-04-11T17:33:17.159Z,96465.95
2019-04-11T17:35:43.659Z,96470.46
2019-04-11T17:38:10.066Z,96477.58
2019-04-11T17:40:39.426Z,96477.22
2019-04-11T17:43:04.628Z,96479.91
2019-04-11T17:45:31.454Z,96480.02
2019-04-11T17:47:59.275Z,96483.08
2019-04-11T17:50:25.662Z,96486.15
2019-04-11T17:52:54.404Z,96483.16
2019-04-11T17:55:23.612Z,96484.31
2019-04-11T17:57:48.426Z,96494.19
2019-04-11T18:00:17.275Z,96498.55
2019-04-11T18:02:46.278Z,96508.40
2019-04-11T18:05:16.697Z,96508.97
2019-04-11T18:07:41.541Z,96509.08
2019-04-11T18:10:08.329Z,96510.98
2019-04-11T18:12:34.625Z,96517.01
2019-04-11T18:15:02.327Z,96514.61
2019-04-11T18:17:29.593Z,96518.97
2019-04-11T18:19:55.885Z,96520.36
2019-04-11T18:22:22.166Z,96523.86
2019-04-11T18:24:50.207Z,96524.05
2019-04-11T18:27:17.096Z,96524.53
2019-04-11T18:29:43.353Z,96529.77
2019-04-11T18:32:09.721Z,96520.04
2019-04-11T18:34:36.113Z,96526.14
2019-04-11T18:37:02.738Z,96530.86
2019-04-11T18:39:28.859Z,96521.98
2019-04-11T18:41:57.555Z,96531.84
2019-04-11T18:44:23.115Z,96527.99
2019-04-11T18:46:49.370Z,96539.50
2019-04-11T18:49:15.572Z,96541.95
2019-04-11T18:51:41.889Z,96543.91
2019-04-11T18:54:08.104Z,96542.55
2019-04-11T18:56:34.399Z,96545.56
2019-04-11T18:59:03.449Z,96537.18
2019-04-11T19:01:29.021Z,96542.98
2019-04-11T19:03:55.216Z,96544.29
2019-04-11T19:06:27.749Z,96552.02
2019-04-11T19:08:49.691Z,96551.27
2019-04-11T19:11:16.363Z,96550.06
2019-04-11T19:13:46.737Z,96560.60
2019-04-11T19:16:10.973Z,96552.61
2019-04-11T19:18:39.409Z,96550.45
2019-04-11T19:21:05.763Z,96555.78
2019-04-11T19:23:32.009Z,96552.55
2019-04-11T19:25:58.234Z,96551.05
2019-04-11T19:28:25.214Z,96550.88
2019-04-11T19:30:54.024Z,96550.23
2019-04-11T19:33:20.224Z,96551.45
2019-04-11T19:35:46.560Z,96548.85
2019-04-11T19:38:26.195Z,96543.63
2019-04-11T19:40:52.620Z,96550.25
2019-04-11T19:43:19.641Z,96549.89
2019-04-11T19:45:49.837Z,96555.83
2019-04-11T19:48:14.102Z,96558.92
2019-04-11T19:50:40.368Z,96555.11
2019-04-11T19:53:07.545Z,96553.41
2019-04-11T19:55:47.690Z,96553.05
2019-04-11T19:58:15.625Z,96552.79
2019-04-11T20:00:42.000Z,96554.18
2019-04-11T20:03:08.959Z,96552.89
2019-04-11T20:05:35.678Z,96552.81
2019-04-11T20:08:01.958Z,96550.59
2019-04-11T20:10:30.611Z,96558.14
2019-04-11T20:12:56.343Z,96558.13
2019-04-11T20:15:22.610Z,96555.34
2019-04-11T20:17:52.029Z,96550.31
2019-04-11T20:20:17.024Z,96554.87
2019-04-11T20:22:43.238Z,96559.15
2019-04-11T20:25:09.622Z,96557.67
2019-04-11T20:27:36.076Z,96556.19
2019-04-11T20:30:04.818Z,96555.89
2019-04-11T20:32:33.160Z,96560.37
2019-04-11T20:34:59.653Z,96561.09
2019-04-11T20:37:26.070Z,96564.73
2019-04-11T20:39:52.375Z,96563.25
2019-04-11T20:42:23.793Z,96558.77
2019-04-11T20:44:49.487Z,96565.19
2019-04-11T20:47:16.891Z,96557.43
2019-04-11T20:49:47.852Z,96559.94
2019-04-11T20:52:14.358Z,96562.00
2019-04-11T20:54:40.633Z,96563.08
2019-04-11T20:57:06.944Z,96560.20
2019-04-11T20:59:34.877Z,96561.77
2019-04-11T21:02:01.430Z,96566.30
2019-04-11T21:04:27.762Z,96560.16
2019-04-11T21:06:54.035Z,96565.63
2019-04-11T21:09:20.249Z,96559.38
2019-04-11T21:11:46.421Z,96560.48
2019-04-11T21:14:12.633Z,96552.49
2019-04-11T21:16:38.810Z,96553.88
2019-04-11T21:19:05.066Z,96554.78
2019-04-11T21:21:31.284Z,96560.47
2019-04-11T21:23:57.941Z,96551.81
2019-04-11T21:26:28.745Z,96550.69
2019-04-11T21:28:53.836Z,96554.40
2019-04-11T21:31:20.111Z,96559.20
2019-04-11T21:33:47.285Z,96555.30
2019-04-11T21:36:13.494Z,96556.86
2019-04-11T21:38:39.658Z,96556.41
2019-04-11T21:41:06.670Z,96559.55
2019-04-11T21:43:35.936Z,96556.58
2019-04-11T21:46:01.235Z,96561.34
2019-04-11T21:48:27.352Z,96560.12
2019-04-11T21:50:53.706Z,96556.39
2019-04-11T21:53:19.809Z,96556.11
2019-04-11T21:55:47.695Z,96558.40
2019-04-11T21:58:14.195Z,96561.56
2019-04-11T22:00:44.823Z,96558.29
2019-04-11T22:03:12.950Z,96558.99
2019-04-11T22:05:39.353Z,96559.92
2019-04-11T22:08:05.550Z,96553.52
2019-04-11T22:10:31.964Z,96556.73
2019-04-11T22:12:58.343Z,96553.40
2019-04-11T22:15:24.547Z,96556.08
2019-04-11T22:17:50.660Z,96557.83
2019-04-11T22:20:17.418Z,96555.40
2019-04-11T22:22:43.731Z,96553.25
2019-04-11T22:25:10.068Z,96550.12
2019-04-11T22:27:36.164Z,96550.12
2019-04-11T22:30:05.948Z,96556.33
2019-04-11T22:32:32.142Z,96556.02
2019-04-11T22:34:59.208Z,96557.03
2019-04-11T22:37:27.735Z,96552.84
2019-04-11T22:39:54.270Z,96556.52
2019-04-11T22:42:20.482Z,96555.70
2019-04-11T22:44:46.665Z,96554.48
2019-04-11T22:47:12.944Z,96555.95
2019-04-11T22:49:39.954Z,96553.03
2019-04-11T22:52:06.518Z,96547.30
2019-04-11T22:54:32.677Z,96555.19
2019-04-11T22:56:59.025Z,96555.09
2019-04-11T22:59:25.232Z,96558.15
2019-04-11T23:01:53.166Z,96552.95
2019-04-11T23:04:19.310Z,96553.80
2019-04-11T23:06:47.118Z,96553.34
2019-04-11T23:09:13.757Z,96559.00
2019-04-11T23:11:39.979Z,96556.11
2019-04-11T23:14:06.061Z,96554.05
2019-04-11T23:16:32.280Z,96552.75
2019-04-11T23:18:59.425Z,96545.28
2019-04-11T23:21:25.635Z,96553.24
2019-04-11T23:23:51.785Z,96556.00
2019-04-11T23:26:18.009Z,96556.65
2019-04-11T23:28:46.906Z,96554.30
2019-04-11T23:31:13.592Z,96555.44
2019-04-11T23:33:39.735Z,96556.08
2019-04-11T23:36:05.999Z,96550.19
2019-04-11T23:38:32.357Z,96556.41
2019-04-11T23:40:58.534Z,96557.45
2019-04-11T23:43:24.804Z,96547.79
2019-04-11T23:45:51.736Z,96551.84
2019-04-11T23:48:18.037Z,96552.45
2019-04-11T23:50:44.314Z,96545.19
2019-04-11T23:53:10.425Z,96551.39
2019-04-11T23:55:36.641Z,96550.09
2019-04-11T23:58:02.896Z,96555.36
